sensor_id;sensor_type;location;lat;lon;timestamp;temperature;humidity
34837;DHT22;21053;50.848;4.652;2022-08-19T00:00:38;18.50;99.90
34837;DHT22;21053;50.848;4.652;2022-08-19T00:03:05;18.40;99.90
34837;DHT22;21053;50.848;4.652;2022-08-19T00:05:32;18.30;99.90
34837;DHT22;21053;50.848;4.652;2022-08-19T00:07:58;18.20;99.90
34837;DHT22;21053;50.848;4.652;2022-08-19T00:10:24;18.20;99.90
34837;DHT22;21053;50.848;4.652;2022-08-19T00:15:18;18.20;99.90
34837;DHT22;21053;50.848;4.652;2022-08-19T00:17:46;18.20;99.90
34837;DHT22;21053;50.848;4.652;2022-08-19T00:20:14;18.20;99.90
34837;DHT22;21053;50.848;4.652;2022-08-19T00:22:43;18.20;99.90
34837;DHT22;21053;50.848;4.652;2022-08-19T00:25:09;18.10;99.90
34837;DHT22;21053;50.848;4.652;2022-08-19T00:27:35;18.20;99.90
34837;DHT22;21053;50.848;4.652;2022-08-19T00:30:01;18.10;99.90
34837;DHT22;21053;50.848;4.652;2022-08-19T00:32:30;18.00;99.90
34837;DHT22;21053;50.848;4.652;2022-08-19T00:34:56;18.00;99.90
34837;DHT22;21053;50.848;4.652;2022-08-19T00:37:24;17.90;99.90
34837;DHT22;21053;50.848;4.652;2022-08-19T00:39:51;17.90;99.90
34837;DHT22;21053;50.848;4.652;2022-08-19T00:42:18;17.90;99.90
34837;DHT22;21053;50.848;4.652;2022-08-19T00:44:46;17.90;99.90
34837;DHT22;21053;50.848;4.652;2022-08-19T00:47:12;17.90;99.90
34837;DHT22;21053;50.848;4.652;2022-08-19T00:49:43;17.90;99.90
34837;DHT22;21053;50.848;4.652;2022-08-19T00:52:19;18.00;99.90
34837;DHT22;21053;50.848;4.652;2022-08-19T00:54:46;18.00;99.90
34837;DHT22;21053;50.848;4.652;2022-08-19T00:57:15;17.90;99.90
34837;DHT22;21053;50.848;4.652;2022-08-19T00:59:46;17.90;99.90
34837;DHT22;21053;50.848;4.652;2022-08-19T01:02:13;17.70;99.90
34837;DHT22;21053;50.848;4.652;2022-08-19T01:04:43;17.70;99.90
34837;DHT22;21053;50.848;4.652;2022-08-19T01:07:08;17.60;99.90
34837;DHT22;21053;50.848;4.652;2022-08-19T01:09:34;17.70;99.90
34837;DHT22;21053;50.848;4.652;2022-08-19T01:12:03;17.60;99.90
34837;DHT22;21053;50.848;4.652;2022-08-19T01:14:30;17.60;99.90
34837;DHT22;21053;50.848;4.652;2022-08-19T01:16:57;17.60;99.90
34837;DHT22;21053;50.848;4.652;2022-08-19T01:19:37;17.70;99.90
34837;DHT22;21053;50.848;4.652;2022-08-19T01:22:10;17.60;99.90
34837;DHT22;21053;50.848;4.652;2022-08-19T01:24:36;17.70;99.90
34837;DHT22;21053;50.848;4.652;2022-08-19T01:27:05;17.60;99.90
34837;DHT22;21053;50.848;4.652;2022-08-19T01:29:40;17.50;99.90
34837;DHT22;21053;50.848;4.652;2022-08-19T01:32:09;17.50;99.90
34837;DHT22;21053;50.848;4.652;2022-08-19T01:34:37;17.40;99.90
34837;DHT22;21053;50.848;4.652;2022-08-19T01:37:09;17.40;99.90
34837;DHT22;21053;50.848;4.652;2022-08-19T01:39:38;17.30;99.90
34837;DHT22;21053;50.848;4.652;2022-08-19T01:42:04;17.40;99.90
34837;DHT22;21053;50.848;4.652;2022-08-19T01:44:31;17.30;99.90
34837;DHT22;21053;50.848;4.652;2022-08-19T01:46:57;17.30;99.90
34837;DHT22;21053;50.848;4.652;2022-08-19T01:49:25;17.30;99.90
34837;DHT22;21053;50.848;4.652;2022-08-19T01:51:53;17.50;99.90
34837;DHT22;21053;50.848;4.652;2022-08-19T01:54:20;17.60;99.90
34837;DHT22;21053;50.848;4.652;2022-08-19T01:56:47;17.50;99.90
34837;DHT22;21053;50.848;4.652;2022-08-19T01:59:19;17.50;99.90
34837;DHT22;21053;50.848;4.652;2022-08-19T02:01:46;17.30;99.90
34837;DHT22;21053;50.848;4.652;2022-08-19T02:04:11;17.30;99.90
34837;DHT22;21053;50.848;4.652;2022-08-19T02:06:38;17.30;99.90
34837;DHT22;21053;50.848;4.652;2022-08-19T02:09:06;17.20;99.90
34837;DHT22;21053;50.848;4.652;2022-08-19T02:11:34;17.30;99.90
34837;DHT22;21053;50.848;4.652;2022-08-19T02:14:04;17.30;99.90
34837;DHT22;21053;50.848;4.652;2022-08-19T02:16:33;17.40;99.90
34837;DHT22;21053;50.848;4.652;2022-08-19T02:18:59;17.40;99.90
34837;DHT22;21053;50.848;4.652;2022-08-19T02:21:28;17.30;99.90
34837;DHT22;21053;50.848;4.652;2022-08-19T02:23:54;17.30;99.90
34837;DHT22;21053;50.848;4.652;2022-08-19T02:26:21;17.20;99.90
34837;DHT22;21053;50.848;4.652;2022-08-19T02:28:48;17.20;99.90
34837;DHT22;21053;50.848;4.652;2022-08-19T02:31:17;17.20;99.90
34837;DHT22;21053;50.848;4.652;2022-08-19T02:33:44;17.20;99.90
34837;DHT22;21053;50.848;4.652;2022-08-19T02:36:11;17.10;99.90
34837;DHT22;21053;50.848;4.652;2022-08-19T02:38:38;17.10;99.90
34837;DHT22;21053;50.848;4.652;2022-08-19T02:41:10;17.20;99.90
34837;DHT22;21053;50.848;4.652;2022-08-19T02:43:36;17.10;99.90
34837;DHT22;21053;50.848;4.652;2022-08-19T02:46:22;17.10;99.90
34837;DHT22;21053;50.848;4.652;2022-08-19T02:48:51;17.20;99.90
34837;DHT22;21053;50.848;4.652;2022-08-19T02:51:19;17.20;99.90
34837;DHT22;21053;50.848;4.652;2022-08-19T02:53:46;17.20;99.90
34837;DHT22;21053;50.848;4.652;2022-08-19T02:56:13;17.10;99.90
34837;DHT22;21053;50.848;4.652;2022-08-19T02:58:40;17.00;99.90
34837;DHT22;21053;50.848;4.652;2022-08-19T03:01:06;16.90;99.90
34837;DHT22;21053;50.848;4.652;2022-08-19T03:03:32;16.90;99.90
34837;DHT22;21053;50.848;4.652;2022-08-19T03:06:14;17.00;99.90
34837;DHT22;21053;50.848;4.652;2022-08-19T03:08:42;17.00;99.90
34837;DHT22;21053;50.848;4.652;2022-08-19T03:11:14;17.00;99.90
34837;DHT22;21053;50.848;4.652;2022-08-19T03:13:41;16.90;99.90
34837;DHT22;21053;50.848;4.652;2022-08-19T03:16:09;16.90;99.90
34837;DHT22;21053;50.848;4.652;2022-08-19T03:18:35;16.80;99.90
34837;DHT22;21053;50.848;4.652;2022-08-19T03:21:04;16.80;99.90
34837;DHT22;21053;50.848;4.652;2022-08-19T03:23:29;16.70;99.90
34837;DHT22;21053;50.848;4.652;2022-08-19T03:25:56;16.70;99.90
34837;DHT22;21053;50.848;4.652;2022-08-19T03:28:22;16.70;99.90
34837;DHT22;21053;50.848;4.652;2022-08-19T03:30:57;16.80;99.90
34837;DHT22;21053;50.848;4.652;2022-08-19T03:33:24;16.70;99.90
34837;DHT22;21053;50.848;4.652;2022-08-19T03:36:12;16.70;99.90
34837;DHT22;21053;50.848;4.652;2022-08-19T03:38:48;16.60;99.90
34837;DHT22;21053;50.848;4.652;2022-08-19T03:41:17;16.60;99.90
34837;DHT22;21053;50.848;4.652;2022-08-19T03:43:44;16.60;99.90
34837;DHT22;21053;50.848;4.652;2022-08-19T03:46:16;16.60;99.90
34837;DHT22;21053;50.848;4.652;2022-08-19T03:48:44;16.60;99.90
34837;DHT22;21053;50.848;4.652;2022-08-19T03:51:19;16.50;99.90
34837;DHT22;21053;50.848;4.652;2022-08-19T03:53:45;16.50;99.90
34837;DHT22;21053;50.848;4.652;2022-08-19T03:56:12;16.50;99.90
34837;DHT22;21053;50.848;4.652;2022-08-19T03:58:39;16.40;99.90
34837;DHT22;21053;50.848;4.652;2022-08-19T04:01:10;16.50;99.90
34837;DHT22;21053;50.848;4.652;2022-08-19T04:03:37;16.40;99.90
34837;DHT22;21053;50.848;4.652;2022-08-19T04:06:22;16.40;99.90
34837;DHT22;21053;50.848;4.652;2022-08-19T04:08:49;16.40;99.90
34837;DHT22;21053;50.848;4.652;2022-08-19T04:11:18;16.40;99.90
34837;DHT22;21053;50.848;4.652;2022-08-19T04:13:48;16.40;99.90
34837;DHT22;21053;50.848;4.652;2022-08-19T04:16:18;16.40;99.90
34837;DHT22;21053;50.848;4.652;2022-08-19T04:18:47;16.40;99.90
34837;DHT22;21053;50.848;4.652;2022-08-19T04:21:19;16.50;99.90
34837;DHT22;21053;50.848;4.652;2022-08-19T04:23:47;16.40;99.90
34837;DHT22;21053;50.848;4.652;2022-08-19T04:26:20;16.30;99.90
34837;DHT22;21053;50.848;4.652;2022-08-19T04:28:48;16.20;99.90
34837;DHT22;21053;50.848;4.652;2022-08-19T04:31:23;16.30;99.90
34837;DHT22;21053;50.848;4.652;2022-08-19T04:33:55;16.30;99.90
34837;DHT22;21053;50.848;4.652;2022-08-19T04:36:24;16.20;99.90
34837;DHT22;21053;50.848;4.652;2022-08-19T04:38:55;16.30;99.90
34837;DHT22;21053;50.848;4.652;2022-08-19T04:41:21;16.40;99.90
34837;DHT22;21053;50.848;4.652;2022-08-19T04:44:07;16.30;99.90
34837;DHT22;21053;50.848;4.652;2022-08-19T04:46:34;16.30;99.90
34837;DHT22;21053;50.848;4.652;2022-08-19T04:49:03;16.30;99.90
34837;DHT22;21053;50.848;4.652;2022-08-19T04:51:30;16.30;99.90
34837;DHT22;21053;50.848;4.652;2022-08-19T04:53:56;16.20;99.90
34837;DHT22;21053;50.848;4.652;2022-08-19T04:56:22;16.30;99.90
34837;DHT22;21053;50.848;4.652;2022-08-19T04:58:54;16.30;99.90
34837;DHT22;21053;50.848;4.652;2022-08-19T05:01:24;16.20;99.90
34837;DHT22;21053;50.848;4.652;2022-08-19T05:03:50;16.20;99.90
34837;DHT22;21053;50.848;4.652;2022-08-19T05:06:17;16.20;99.90
34837;DHT22;21053;50.848;4.652;2022-08-19T05:08:44;16.20;99.90
34837;DHT22;21053;50.848;4.652;2022-08-19T05:13:38;16.40;99.90
34837;DHT22;21053;50.848;4.652;2022-08-19T05:16:04;16.50;99.90
34837;DHT22;21053;50.848;4.652;2022-08-19T05:18:36;16.50;99.90
34837;DHT22;21053;50.848;4.652;2022-08-19T05:21:21;16.50;99.90
34837;DHT22;21053;50.848;4.652;2022-08-19T05:24:06;16.60;99.90
34837;DHT22;21053;50.848;4.652;2022-08-19T05:26:39;16.60;99.90
34837;DHT22;21053;50.848;4.652;2022-08-19T05:29:07;16.70;99.90
34837;DHT22;21053;50.848;4.652;2022-08-19T05:31:36;16.80;99.90
34837;DHT22;21053;50.848;4.652;2022-08-19T05:34:02;16.90;99.90
34837;DHT22;21053;50.848;4.652;2022-08-19T05:36:34;17.00;99.90
34837;DHT22;21053;50.848;4.652;2022-08-19T05:39:02;17.10;99.90
34837;DHT22;21053;50.848;4.652;2022-08-19T05:41:29;17.20;99.90
34837;DHT22;21053;50.848;4.652;2022-08-19T05:44:02;17.30;99.90
34837;DHT22;21053;50.848;4.652;2022-08-19T05:46:33;17.20;99.90
34837;DHT22;21053;50.848;4.652;2022-08-19T05:49:00;17.30;99.90
34837;DHT22;21053;50.848;4.652;2022-08-19T05:51:26;17.40;99.90
34837;DHT22;21053;50.848;4.652;2022-08-19T05:53:52;17.40;99.90
34837;DHT22;21053;50.848;4.652;2022-08-19T05:56:18;17.50;99.90
34837;DHT22;21053;50.848;4.652;2022-08-19T05:58:45;17.60;99.90
34837;DHT22;21053;50.848;4.652;2022-08-19T06:01:17;17.70;99.90
34837;DHT22;21053;50.848;4.652;2022-08-19T06:03:44;17.80;99.90
34837;DHT22;21053;50.848;4.652;2022-08-19T06:06:11;17.90;99.90
34837;DHT22;21053;50.848;4.652;2022-08-19T06:08:37;18.10;99.90
34837;DHT22;21053;50.848;4.652;2022-08-19T06:11:23;18.10;99.90
34837;DHT22;21053;50.848;4.652;2022-08-19T06:13:51;18.20;99.90
34837;DHT22;21053;50.848;4.652;2022-08-19T06:16:21;18.40;99.90
34837;DHT22;21053;50.848;4.652;2022-08-19T06:18:55;18.40;99.90
34837;DHT22;21053;50.848;4.652;2022-08-19T06:21:25;18.40;99.90
34837;DHT22;21053;50.848;4.652;2022-08-19T06:23:55;18.40;99.90
34837;DHT22;21053;50.848;4.652;2022-08-19T06:26:23;18.50;99.90
34837;DHT22;21053;50.848;4.652;2022-08-19T06:28:50;18.60;99.90
34837;DHT22;21053;50.848;4.652;2022-08-19T06:31:19;18.70;99.90
34837;DHT22;21053;50.848;4.652;2022-08-19T06:33:48;18.70;99.90
34837;DHT22;21053;50.848;4.652;2022-08-19T06:36:24;18.90;99.90
34837;DHT22;21053;50.848;4.652;2022-08-19T06:38:59;19.00;99.90
34837;DHT22;21053;50.848;4.652;2022-08-19T06:41:25;19.10;99.90
34837;DHT22;21053;50.848;4.652;2022-08-19T06:43:52;19.10;99.90
34837;DHT22;21053;50.848;4.652;2022-08-19T06:46:18;19.10;99.90
34837;DHT22;21053;50.848;4.652;2022-08-19T06:48:46;19.20;99.90
34837;DHT22;21053;50.848;4.652;2022-08-19T06:51:14;19.20;99.90
34837;DHT22;21053;50.848;4.652;2022-08-19T06:53:48;19.30;99.90
34837;DHT22;21053;50.848;4.652;2022-08-19T06:56:16;19.50;99.90
34837;DHT22;21053;50.848;4.652;2022-08-19T06:58:42;19.70;99.90
34837;DHT22;21053;50.848;4.652;2022-08-19T07:01:09;19.80;99.90
34837;DHT22;21053;50.848;4.652;2022-08-19T07:03:38;19.90;99.90
34837;DHT22;21053;50.848;4.652;2022-08-19T07:06:05;19.90;99.90
34837;DHT22;21053;50.848;4.652;2022-08-19T07:08:33;20.00;99.90
34837;DHT22;21053;50.848;4.652;2022-08-19T07:11:05;20.10;99.90
34837;DHT22;21053;50.848;4.652;2022-08-19T07:13:34;20.40;99.90
34837;DHT22;21053;50.848;4.652;2022-08-19T07:16:13;20.60;99.90
34837;DHT22;21053;50.848;4.652;2022-08-19T07:18:41;21.00;99.90
34837;DHT22;21053;50.848;4.652;2022-08-19T07:21:30;21.10;99.90
34837;DHT22;21053;50.848;4.652;2022-08-19T07:23:56;21.40;99.90
34837;DHT22;21053;50.848;4.652;2022-08-19T07:26:31;21.70;99.90
34837;DHT22;21053;50.848;4.652;2022-08-19T07:28:58;21.90;99.90
34837;DHT22;21053;50.848;4.652;2022-08-19T07:31:26;22.30;99.90
34837;DHT22;21053;50.848;4.652;2022-08-19T07:33:54;22.60;99.90
34837;DHT22;21053;50.848;4.652;2022-08-19T07:36:27;22.60;99.90
34837;DHT22;21053;50.848;4.652;2022-08-19T07:38:57;22.40;99.90
34837;DHT22;21053;50.848;4.652;2022-08-19T07:41:26;22.10;99.90
34837;DHT22;21053;50.848;4.652;2022-08-19T07:43:55;22.10;99.90
34837;DHT22;21053;50.848;4.652;2022-08-19T07:46:21;22.10;99.90
34837;DHT22;21053;50.848;4.652;2022-08-19T07:48:49;21.90;99.90
34837;DHT22;21053;50.848;4.652;2022-08-19T07:51:20;21.80;99.90
34837;DHT22;21053;50.848;4.652;2022-08-19T07:53:47;22.00;99.90
34837;DHT22;21053;50.848;4.652;2022-08-19T07:56:16;22.30;99.90
34837;DHT22;21053;50.848;4.652;2022-08-19T07:58:45;22.60;99.90
34837;DHT22;21053;50.848;4.652;2022-08-19T08:01:15;22.70;99.90
34837;DHT22;21053;50.848;4.652;2022-08-19T08:03:41;22.90;99.90
34837;DHT22;21053;50.848;4.652;2022-08-19T08:06:25;23.20;99.90
34837;DHT22;21053;50.848;4.652;2022-08-19T08:09:10;23.50;99.90
34837;DHT22;21053;50.848;4.652;2022-08-19T08:11:44;23.60;99.90
34837;DHT22;21053;50.848;4.652;2022-08-19T08:14:21;23.80;99.90
34837;DHT22;21053;50.848;4.652;2022-08-19T08:16:49;24.00;99.90
34837;DHT22;21053;50.848;4.652;2022-08-19T08:19:16;24.00;99.90
34837;DHT22;21053;50.848;4.652;2022-08-19T08:21:42;23.80;99.90
34837;DHT22;21053;50.848;4.652;2022-08-19T08:24:09;23.50;99.90
34837;DHT22;21053;50.848;4.652;2022-08-19T08:26:36;23.50;99.90
34837;DHT22;21053;50.848;4.652;2022-08-19T08:31:28;23.40;99.90
34837;DHT22;21053;50.848;4.652;2022-08-19T08:33:54;23.80;99.90
34837;DHT22;21053;50.848;4.652;2022-08-19T08:36:20;24.00;99.90
34837;DHT22;21053;50.848;4.652;2022-08-19T08:38:46;23.90;99.90
34837;DHT22;21053;50.848;4.652;2022-08-19T08:44:45;24.30;99.90
34837;DHT22;21053;50.848;4.652;2022-08-19T08:47:13;24.90;99.90
34837;DHT22;21053;50.848;4.652;2022-08-19T08:49:50;25.30;99.30
34837;DHT22;21053;50.848;4.652;2022-08-19T08:52:29;25.40;98.20
34837;DHT22;21053;50.848;4.652;2022-08-19T08:54:58;24.90;97.70
34837;DHT22;21053;50.848;4.652;2022-08-19T08:57:45;24.70;99.30
34837;DHT22;21053;50.848;4.652;2022-08-19T09:00:27;24.80;99.90
34837;DHT22;21053;50.848;4.652;2022-08-19T09:02:54;25.00;99.40
34837;DHT22;21053;50.848;4.652;2022-08-19T09:05:21;25.00;99.30
34837;DHT22;21053;50.848;4.652;2022-08-19T09:08:08;24.70;99.50
34837;DHT22;21053;50.848;4.652;2022-08-19T09:10:37;24.40;99.90
34837;DHT22;21053;50.848;4.652;2022-08-19T09:16:05;24.20;99.90
34837;DHT22;21053;50.848;4.652;2022-08-19T09:18:51;24.60;99.90
34837;DHT22;21053;50.848;4.652;2022-08-19T09:21:22;25.00;99.70
34837;DHT22;21053;50.848;4.652;2022-08-19T09:23:49;25.20;98.70
34837;DHT22;21053;50.848;4.652;2022-08-19T09:26:18;25.00;98.70
34837;DHT22;21053;50.848;4.652;2022-08-19T09:28:46;24.80;99.40
34837;DHT22;21053;50.848;4.652;2022-08-19T09:31:24;24.60;99.40
34837;DHT22;21053;50.848;4.652;2022-08-19T09:33:51;24.40;99.90
34837;DHT22;21053;50.848;4.652;2022-08-19T09:36:20;24.30;99.90
34837;DHT22;21053;50.848;4.652;2022-08-19T09:38:47;24.30;99.90
34837;DHT22;21053;50.848;4.652;2022-08-19T09:41:20;24.30;99.90
34837;DHT22;21053;50.848;4.652;2022-08-19T09:43:48;24.20;99.90
34837;DHT22;21053;50.848;4.652;2022-08-19T09:46:17;24.30;99.90
34837;DHT22;21053;50.848;4.652;2022-08-19T09:48:47;24.30;99.90
34837;DHT22;21053;50.848;4.652;2022-08-19T09:51:17;24.40;99.90
34837;DHT22;21053;50.848;4.652;2022-08-19T09:53:47;24.40;99.90
34837;DHT22;21053;50.848;4.652;2022-08-19T09:56:17;24.30;99.90
34837;DHT22;21053;50.848;4.652;2022-08-19T09:58:43;24.30;99.90
34837;DHT22;21053;50.848;4.652;2022-08-19T10:01:09;24.20;99.90
34837;DHT22;21053;50.848;4.652;2022-08-19T10:03:36;24.20;99.90
34837;DHT22;21053;50.848;4.652;2022-08-19T10:06:04;24.00;99.90
34837;DHT22;21053;50.848;4.652;2022-08-19T10:08:35;24.10;99.90
34837;DHT22;21053;50.848;4.652;2022-08-19T10:11:01;24.10;99.90
34837;DHT22;21053;50.848;4.652;2022-08-19T10:13:28;24.20;99.90
34837;DHT22;21053;50.848;4.652;2022-08-19T10:15:57;24.20;99.90
34837;DHT22;21053;50.848;4.652;2022-08-19T10:18:29;24.40;99.90
34837;DHT22;21053;50.848;4.652;2022-08-19T10:21:04;24.60;99.90
34837;DHT22;21053;50.848;4.652;2022-08-19T10:23:37;24.50;99.90
34837;DHT22;21053;50.848;4.652;2022-08-19T10:26:05;24.60;99.90
34837;DHT22;21053;50.848;4.652;2022-08-19T10:28:35;24.70;99.90
34837;DHT22;21053;50.848;4.652;2022-08-19T10:31:12;24.70;99.90
34837;DHT22;21053;50.848;4.652;2022-08-19T10:33:39;24.70;99.90
34837;DHT22;21053;50.848;4.652;2022-08-19T10:36:12;24.70;99.90
34837;DHT22;21053;50.848;4.652;2022-08-19T10:38:40;24.70;99.90
34837;DHT22;21053;50.848;4.652;2022-08-19T10:41:29;24.80;99.90
34837;DHT22;21053;50.848;4.652;2022-08-19T10:43:57;24.90;99.90
34837;DHT22;21053;50.848;4.652;2022-08-19T10:46:26;25.30;99.40
34837;DHT22;21053;50.848;4.652;2022-08-19T10:48:53;25.30;98.40
34837;DHT22;21053;50.848;4.652;2022-08-19T10:51:21;25.40;98.80
34837;DHT22;21053;50.848;4.652;2022-08-19T10:54:06;25.30;98.80
34837;DHT22;21053;50.848;4.652;2022-08-19T10:56:32;25.60;99.50
34837;DHT22;21053;50.848;4.652;2022-08-19T10:59:24;25.80;98.80
34837;DHT22;21053;50.848;4.652;2022-08-19T11:01:53;25.70;99.10
34837;DHT22;21053;50.848;4.652;2022-08-19T11:04:20;26.00;98.90
34837;DHT22;21053;50.848;4.652;2022-08-19T11:06:48;26.10;97.90
34837;DHT22;21053;50.848;4.652;2022-08-19T11:09:22;26.00;98.00
34837;DHT22;21053;50.848;4.652;2022-08-19T11:11:52;25.80;99.00
34837;DHT22;21053;50.848;4.652;2022-08-19T11:14:20;25.60;98.50
34837;DHT22;21053;50.848;4.652;2022-08-19T11:16:48;25.50;99.20
34837;DHT22;21053;50.848;4.652;2022-08-19T11:19:15;25.30;99.30
34837;DHT22;21053;50.848;4.652;2022-08-19T11:21:46;25.10;99.20
34837;DHT22;21053;50.848;4.652;2022-08-19T11:24:20;24.90;99.70
34837;DHT22;21053;50.848;4.652;2022-08-19T11:26:48;24.80;99.90
34837;DHT22;21053;50.848;4.652;2022-08-19T11:29:16;24.90;99.90
34837;DHT22;21053;50.848;4.652;2022-08-19T11:31:46;24.90;99.90
34837;DHT22;21053;50.848;4.652;2022-08-19T11:34:21;24.90;99.90
34837;DHT22;21053;50.848;4.652;2022-08-19T11:36:49;24.90;99.90
34837;DHT22;21053;50.848;4.652;2022-08-19T11:39:18;24.80;99.90
34837;DHT22;21053;50.848;4.652;2022-08-19T11:41:45;24.80;99.90
34837;DHT22;21053;50.848;4.652;2022-08-19T11:44:11;24.80;99.90
34837;DHT22;21053;50.848;4.652;2022-08-19T11:46:39;24.80;99.90
34837;DHT22;21053;50.848;4.652;2022-08-19T11:49:06;24.80;99.90
34837;DHT22;21053;50.848;4.652;2022-08-19T11:51:34;24.80;99.90
34837;DHT22;21053;50.848;4.652;2022-08-19T11:54:01;24.90;99.90
34837;DHT22;21053;50.848;4.652;2022-08-19T11:56:28;24.90;99.90
34837;DHT22;21053;50.848;4.652;2022-08-19T11:58:55;24.90;99.90
34837;DHT22;21053;50.848;4.652;2022-08-19T12:01:28;24.80;99.90
34837;DHT22;21053;50.848;4.652;2022-08-19T12:03:55;24.70;99.90
34837;DHT22;21053;50.848;4.652;2022-08-19T12:06:24;24.50;99.90
34837;DHT22;21053;50.848;4.652;2022-08-19T12:08:52;24.50;99.90
34837;DHT22;21053;50.848;4.652;2022-08-19T12:11:19;24.50;99.90
34837;DHT22;21053;50.848;4.652;2022-08-19T12:13:47;24.50;99.90
34837;DHT22;21053;50.848;4.652;2022-08-19T12:16:22;24.40;99.90
34837;DHT22;21053;50.848;4.652;2022-08-19T12:18:49;24.50;99.90
34837;DHT22;21053;50.848;4.652;2022-08-19T12:21:21;24.50;99.90
34837;DHT22;21053;50.848;4.652;2022-08-19T12:23:51;24.70;99.90
34837;DHT22;21053;50.848;4.652;2022-08-19T12:26:17;24.80;99.90
34837;DHT22;21053;50.848;4.652;2022-08-19T12:28:44;25.00;99.90
34837;DHT22;21053;50.848;4.652;2022-08-19T12:31:10;25.20;99.90
34837;DHT22;21053;50.848;4.652;2022-08-19T12:33:41;25.20;99.90
34837;DHT22;21053;50.848;4.652;2022-08-19T12:36:09;25.30;99.90
34837;DHT22;21053;50.848;4.652;2022-08-19T12:38:37;25.40;99.90
34837;DHT22;21053;50.848;4.652;2022-08-19T12:41:05;25.40;99.70
34837;DHT22;21053;50.848;4.652;2022-08-19T12:43:37;25.30;99.40
34837;DHT22;21053;50.848;4.652;2022-08-19T12:46:04;25.40;99.60
34837;DHT22;21053;50.848;4.652;2022-08-19T12:48:32;25.40;99.30
34837;DHT22;21053;50.848;4.652;2022-08-19T12:50:59;25.50;99.90
34837;DHT22;21053;50.848;4.652;2022-08-19T12:53:24;25.70;99.40
34837;DHT22;21053;50.848;4.652;2022-08-19T12:55:58;26.00;99.40
34837;DHT22;21053;50.848;4.652;2022-08-19T12:58:27;26.30;99.20
34837;DHT22;21053;50.848;4.652;2022-08-19T13:00:54;26.70;99.30
34837;DHT22;21053;50.848;4.652;2022-08-19T13:03:20;26.90;97.40
34837;DHT22;21053;50.848;4.652;2022-08-19T13:05:50;27.20;97.20
34837;DHT22;21053;50.848;4.652;2022-08-19T13:08:16;27.30;96.10
34837;DHT22;21053;50.848;4.652;2022-08-19T13:10:42;27.30;96.00
34837;DHT22;21053;50.848;4.652;2022-08-19T13:13:09;27.30;95.60
34837;DHT22;21053;50.848;4.652;2022-08-19T13:15:37;27.60;96.20
34837;DHT22;21053;50.848;4.652;2022-08-19T13:18:03;27.70;95.50
34837;DHT22;21053;50.848;4.652;2022-08-19T13:20:30;27.70;95.20
34837;DHT22;21053;50.848;4.652;2022-08-19T13:22:55;27.90;95.90
34837;DHT22;21053;50.848;4.652;2022-08-19T13:25:24;28.20;94.30
34837;DHT22;21053;50.848;4.652;2022-08-19T13:27:51;28.40;94.00
34837;DHT22;21053;50.848;4.652;2022-08-19T13:30:18;28.50;92.80
34837;DHT22;21053;50.848;4.652;2022-08-19T13:33:04;28.20;93.00
34837;DHT22;21053;50.848;4.652;2022-08-19T13:35:48;27.90;93.30
34837;DHT22;21053;50.848;4.652;2022-08-19T13:38:19;27.80;93.90
34837;DHT22;21053;50.848;4.652;2022-08-19T13:40:46;27.70;93.40
34837;DHT22;21053;50.848;4.652;2022-08-19T13:43:13;27.50;94.10
34837;DHT22;21053;50.848;4.652;2022-08-19T13:45:39;27.30;94.20
34837;DHT22;21053;50.848;4.652;2022-08-19T13:48:07;27.30;95.00
34837;DHT22;21053;50.848;4.652;2022-08-19T13:50:42;27.20;93.90
34837;DHT22;21053;50.848;4.652;2022-08-19T13:53:09;27.10;94.50
34837;DHT22;21053;50.848;4.652;2022-08-19T13:55:40;27.30;94.50
34837;DHT22;21053;50.848;4.652;2022-08-19T13:58:08;27.30;94.10
34837;DHT22;21053;50.848;4.652;2022-08-19T14:00:39;27.30;93.70
34837;DHT22;21053;50.848;4.652;2022-08-19T14:03:06;27.30;94.40
34837;DHT22;21053;50.848;4.652;2022-08-19T14:05:33;27.40;94.30
34837;DHT22;21053;50.848;4.652;2022-08-19T14:07:59;27.30;94.80
34837;DHT22;21053;50.848;4.652;2022-08-19T14:10:26;27.30;95.30
34837;DHT22;21053;50.848;4.652;2022-08-19T14:12:54;27.40;94.30
34837;DHT22;21053;50.848;4.652;2022-08-19T14:15:21;27.40;93.70
34837;DHT22;21053;50.848;4.652;2022-08-19T14:17:48;27.50;94.50
34837;DHT22;21053;50.848;4.652;2022-08-19T14:20:15;27.60;94.00
34837;DHT22;21053;50.848;4.652;2022-08-19T14:22:42;27.80;93.80
34837;DHT22;21053;50.848;4.652;2022-08-19T14:25:13;28.00;93.40
34837;DHT22;21053;50.848;4.652;2022-08-19T14:27:40;28.20;92.70
34837;DHT22;21053;50.848;4.652;2022-08-19T14:30:08;28.10;91.70
34837;DHT22;21053;50.848;4.652;2022-08-19T14:32:35;27.90;92.60
34837;DHT22;21053;50.848;4.652;2022-08-19T14:35:04;27.80;93.40
34837;DHT22;21053;50.848;4.652;2022-08-19T14:37:30;27.70;93.80
34837;DHT22;21053;50.848;4.652;2022-08-19T14:39:58;27.60;93.20
34837;DHT22;21053;50.848;4.652;2022-08-19T14:42:24;27.40;93.90
34837;DHT22;21053;50.848;4.652;2022-08-19T14:44:50;27.30;93.50
34837;DHT22;21053;50.848;4.652;2022-08-19T14:49:42;27.10;93.40
34837;DHT22;21053;50.848;4.652;2022-08-19T14:52:10;26.80;93.80
34837;DHT22;21053;50.848;4.652;2022-08-19T14:54:35;26.70;94.70
34837;DHT22;21053;50.848;4.652;2022-08-19T14:57:03;26.50;94.70
34837;DHT22;21053;50.848;4.652;2022-08-19T14:59:31;26.50;95.30
34837;DHT22;21053;50.848;4.652;2022-08-19T15:01:58;26.50;95.80
34837;DHT22;21053;50.848;4.652;2022-08-19T15:04:31;26.50;96.00
34837;DHT22;21053;50.848;4.652;2022-08-19T15:06:57;26.60;95.80
34837;DHT22;21053;50.848;4.652;2022-08-19T15:09:23;26.70;96.10
34837;DHT22;21053;50.848;4.652;2022-08-19T15:11:51;26.60;96.20
34837;DHT22;21053;50.848;4.652;2022-08-19T15:14:17;26.60;95.90
34837;DHT22;21053;50.848;4.652;2022-08-19T15:16:43;26.30;95.60
34837;DHT22;21053;50.848;4.652;2022-08-19T15:19:11;26.30;96.00
34837;DHT22;21053;50.848;4.652;2022-08-19T15:21:40;26.20;96.40
34837;DHT22;21053;50.848;4.652;2022-08-19T15:24:09;26.20;96.30
34837;DHT22;21053;50.848;4.652;2022-08-19T15:26:35;26.00;95.80
34837;DHT22;21053;50.848;4.652;2022-08-19T15:29:03;25.90;96.40
34837;DHT22;21053;50.848;4.652;2022-08-19T15:31:30;25.60;97.10
34837;DHT22;21053;50.848;4.652;2022-08-19T15:34:03;25.50;97.50
34837;DHT22;21053;50.848;4.652;2022-08-19T15:36:32;25.50;98.20
34837;DHT22;21053;50.848;4.652;2022-08-19T15:39:01;25.40;99.00
34837;DHT22;21053;50.848;4.652;2022-08-19T15:41:29;25.40;99.90
34837;DHT22;21053;50.848;4.652;2022-08-19T15:43:59;25.60;99.80
34837;DHT22;21053;50.848;4.652;2022-08-19T15:46:28;25.60;99.80
34837;DHT22;21053;50.848;4.652;2022-08-19T15:48:56;25.60;99.70
34837;DHT22;21053;50.848;4.652;2022-08-19T15:51:24;25.70;99.20
34837;DHT22;21053;50.848;4.652;2022-08-19T15:53:50;25.70;98.90
34837;DHT22;21053;50.848;4.652;2022-08-19T15:56:16;25.60;98.50
34837;DHT22;21053;50.848;4.652;2022-08-19T15:58:45;25.70;98.80